South Pasadena, Florida
Current Conditions -  °F | °C
As of 6:53 PM on Sunday 21 Dec 2014 (Local Time) from KSPG Reporting Station
Overcast Overcast  
Wind Chill: 68°   Ceiling: 3000
Heat Index: 68°   Visibility: 10mi
Dew Point: 64°   Wind: 6mph
Humidity: 87%   Direction: 60°ENE
Pressure: 30.01"   Gusts: NA
Location:  27.7562°N, 82.7184°W
Report Text: KSPG 212353Z 06005KT 10SM BKN030 BKN039 OVC065 20/18 A3001 RMK AO2 LTG DSNT NW RAB02E31 SLP162 P0000 60000 T02000178 10239 20194 53005
Loading
Personal Weather Stations






























Interactive Weather Map New forecast layout! Learn more

10-Day Weather Forecast

Advertisements
Track Severe Weather on mobile